SVJC/LSP METAR and TAF weather

Enter ICAO airport designator
Station Type Date Time Source
SVJC METAR 2022/12/09 20:00 UTC NOAA

SVJC 092000Z 09010KT 9999 BKN040 XX/XX QXXXX


Station Type Date Time Source
SVJC Decoded METAR 2022/12/09 20:00 UTC NOAA

Paraguana / Josefa, Venezuela (SVJC) 11-47N 070-09W
Dec 09, 2022 - 03:00 PM EST / 2022.12.09 2000 UTC
Wind: from the E (090 degrees) at 12 MPH (10 KT):0
Visibility: greater than 7 mile(s):0
Sky conditions: mostly cloudy
ob: SVJC 092000Z 09010KT 9999 BKN040 XX/XX QXXXX
cycle: 20

Station Type Date Time Source
SVJC TAF 2022/12/09 18:03 UTC NOAA

TAF TAF SVJC 091600Z 0918/1018 08005KT 9999 SCT013 TX31/0919Z TN19/1008Z
BECMG 0920/0923 18006KT 9999 SCT016 BKN080

Example: see airport list